createdAt,value
2023-04-27T10:00:20.674Z,100929.19
2023-04-27T10:03:12.756Z,100933.34
2023-04-27T10:05:58.797Z,100941.88
2023-04-27T10:08:26.794Z,100942.53
2023-04-27T10:10:53.884Z,100935.09
2023-04-27T10:13:26.578Z,100934.50
2023-04-27T10:15:54.400Z,100910.72
2023-04-27T10:18:31.217Z,100937.72
2023-04-27T10:21:10.554Z,100941.41
2023-04-27T10:23:47.028Z,100947.13
2023-04-27T10:26:21.857Z,100944.91
2023-04-27T10:29:04.833Z,100955.06
2023-04-27T10:31:31.994Z,100954.72
2023-04-27T10:34:11.798Z,100959.72
2023-04-27T10:36:41.059Z,100955.88
2023-04-27T10:39:18.865Z,100897.09
2023-04-27T10:41:54.548Z,100969.13
2023-04-27T10:44:28.769Z,100966.09
2023-04-27T10:47:02.000Z,100968.28
2023-04-27T10:49:30.422Z,100961.00
2023-04-27T10:51:59.201Z,100970.00
2023-04-27T10:54:28.678Z,100958.13
2023-04-27T10:57:11.556Z,100980.44
2023-04-27T10:59:51.232Z,100975.66
2023-04-27T11:02:25.513Z,100945.91
2023-04-27T11:04:52.659Z,100983.38
2023-04-27T11:07:27.866Z,100979.56
2023-04-27T11:09:55.258Z,100994.59
2023-04-27T11:12:22.662Z,100994.06
2023-04-27T11:14:49.787Z,100997.03
2023-04-27T11:17:16.786Z,100983.44
2023-04-27T11:19:47.676Z,100989.03
2023-04-27T11:22:19.130Z,100994.69
2023-04-27T11:24:48.126Z,100996.97
2023-04-27T11:27:18.278Z,101000.06
2023-04-27T11:29:45.865Z,100997.16
2023-04-27T11:32:20.975Z,101002.91
2023-04-27T11:34:56.071Z,101002.44
2023-04-27T11:37:26.593Z,101009.16
2023-04-27T11:39:54.889Z,101010.50
2023-04-27T11:42:23.913Z,101014.66
2023-04-27T11:45:22.283Z,101019.59
2023-04-27T11:48:09.462Z,101008.56
2023-04-27T11:50:56.579Z,101017.88
2023-04-27T11:53:58.636Z,100904.72
2023-04-27T11:56:54.702Z,101022.53
2023-04-27T11:59:43.180Z,101025.69
2023-04-27T12:02:30.358Z,101024.06
2023-04-27T12:05:19.641Z,101041.19
2023-04-27T12:08:06.753Z,101047.31
2023-04-27T12:10:53.979Z,101046.22
2023-04-27T12:13:40.985Z,101040.78
2023-04-27T12:16:28.311Z,101052.41
2023-04-27T12:19:15.586Z,101047.41
2023-04-27T12:22:02.665Z,101058.38
2023-04-27T12:24:49.584Z,101064.13
2023-04-27T12:27:36.670Z,101060.97
2023-04-27T12:30:24.089Z,101066.84
2023-04-27T12:33:11.313Z,101065.88
2023-04-27T12:35:58.569Z,101061.00
2023-04-27T12:38:45.430Z,101061.84
2023-04-27T12:41:32.583Z,101064.13
2023-04-27T12:44:19.826Z,101067.34
2023-04-27T12:47:07.644Z,101067.94
2023-04-27T12:49:54.777Z,101080.19
2023-04-27T12:52:41.805Z,101082.63
2023-04-27T12:55:32.900Z,101084.00
2023-04-27T12:58:20.630Z,101079.34
2023-04-27T13:01:07.592Z,101091.41
2023-04-27T13:03:54.876Z,101090.16
2023-04-27T13:06:42.406Z,101047.50
2023-04-27T13:09:29.542Z,101089.19
2023-04-27T13:12:16.771Z,101089.97
2023-04-27T13:15:03.761Z,101093.41
2023-04-27T13:17:51.377Z,101096.94
2023-04-27T13:20:38.780Z,101101.44
2023-04-27T13:23:25.932Z,101109.50
2023-04-27T13:26:13.103Z,101115.00
2023-04-27T13:29:00.754Z,101109.88
2023-04-27T13:31:47.854Z,101111.69
2023-04-27T13:34:34.813Z,101115.25
2023-04-27T13:37:21.740Z,101109.94
2023-04-27T13:40:08.859Z,101114.44
2023-04-27T13:42:55.971Z,101120.56
2023-04-27T13:45:43.159Z,101121.31
2023-04-27T13:48:30.144Z,101109.28
2023-04-27T13:51:17.471Z,101130.44
2023-04-27T13:54:05.469Z,101054.50
2023-04-27T13:56:52.547Z,101119.19
2023-04-27T13:59:39.537Z,101139.31
2023-04-27T14:02:26.673Z,101138.19
2023-04-27T14:05:14.788Z,101138.13
2023-04-27T14:08:01.881Z,101141.50
2023-04-27T14:10:50.018Z,101142.38
2023-04-27T14:13:38.444Z,101158.38
2023-04-27T14:16:25.883Z,101150.41
2023-04-27T14:19:13.071Z,101150.47
2023-04-27T14:22:00.244Z,101142.63
2023-04-27T14:24:48.875Z,101162.69
2023-04-27T14:27:35.974Z,101151.34
2023-04-27T14:30:23.333Z,101164.81
2023-04-27T14:33:10.413Z,101151.06
2023-04-27T14:35:57.555Z,101159.16
2023-04-27T14:38:44.815Z,101159.25
2023-04-27T14:41:31.918Z,101159.56
2023-04-27T14:44:18.961Z,101159.81
2023-04-27T14:47:06.055Z,101170.50
2023-04-27T14:49:53.132Z,101171.53
2023-04-27T14:52:40.203Z,101151.06
2023-04-27T14:55:27.941Z,101169.06
2023-04-27T14:58:15.028Z,101179.69
2023-04-27T15:01:02.321Z,101175.13
2023-04-27T15:03:50.000Z,101177.53
2023-04-27T15:06:37.150Z,101183.47
2023-04-27T15:09:24.354Z,101165.41
2023-04-27T15:12:11.397Z,101181.66
2023-04-27T15:14:58.585Z,101194.81
2023-04-27T15:17:46.190Z,101197.72
2023-04-27T15:20:33.513Z,101194.28
2023-04-27T15:23:20.514Z,101201.97
2023-04-27T15:26:08.460Z,101199.81
2023-04-27T15:28:55.585Z,101189.13
2023-04-27T15:31:43.489Z,101198.41
2023-04-27T15:34:31.251Z,101193.66
2023-04-27T15:37:18.329Z,101189.72
2023-04-27T15:40:05.485Z,101187.13
2023-04-27T15:42:52.720Z,101196.88
2023-04-27T15:45:39.734Z,101198.03
2023-04-27T15:48:26.840Z,101202.78
2023-04-27T15:51:13.896Z,101190.75
2023-04-27T15:54:00.996Z,101206.94
2023-04-27T15:56:47.908Z,101206.47
2023-04-27T15:59:35.051Z,101222.41
2023-04-27T16:02:22.488Z,101219.06
2023-04-27T16:05:09.851Z,101216.59
2023-04-27T16:07:58.066Z,101214.19
2023-04-27T16:10:45.125Z,101212.59
2023-04-27T16:13:32.107Z,101192.03
2023-04-27T16:16:19.206Z,101215.63
2023-04-27T16:19:06.321Z,101208.19
2023-04-27T16:21:53.444Z,101210.00
2023-04-27T16:24:40.386Z,101216.97
2023-04-27T16:27:27.749Z,101212.59
2023-04-27T16:30:15.202Z,101214.38
2023-04-27T16:33:02.201Z,101222.28
2023-04-27T16:35:49.304Z,101216.22
2023-04-27T16:38:39.068Z,101216.34
2023-04-27T16:41:26.422Z,101216.69
2023-04-27T16:44:13.558Z,101213.59
2023-04-27T16:47:00.756Z,101227.44
2023-04-27T16:49:47.834Z,101225.66
2023-04-27T16:52:34.730Z,101223.75
2023-04-27T16:55:21.957Z,101219.28
2023-04-27T16:58:08.973Z,101234.97
2023-04-27T17:00:56.208Z,101224.34
2023-04-27T17:03:43.519Z,101227.00
2023-04-27T17:06:30.689Z,101222.53
2023-04-27T17:09:18.098Z,101232.25
2023-04-27T17:12:05.174Z,101229.66
2023-04-27T17:14:52.088Z,101231.59
2023-04-27T17:17:39.305Z,101238.94
2023-04-27T17:20:27.190Z,101236.56
2023-04-27T17:23:14.166Z,101242.28
2023-04-27T17:26:01.112Z,101238.16
2023-04-27T17:28:48.203Z,101248.28
2023-04-27T17:31:35.807Z,101250.34
2023-04-27T17:34:22.982Z,101244.38
2023-04-27T17:37:09.905Z,101245.44
2023-04-27T17:39:56.946Z,101254.34
2023-04-27T17:42:44.310Z,101243.91
2023-04-27T17:45:31.392Z,101256.38
2023-04-27T17:48:18.889Z,101255.66
2023-04-27T17:51:06.010Z,101259.38
2023-04-27T17:53:53.125Z,101260.41
2023-04-27T17:56:40.104Z,101265.88
2023-04-27T17:59:30.065Z,101262.56
2023-04-27T18:02:17.070Z,101263.69
2023-04-27T18:05:04.077Z,101279.03
2023-04-27T18:07:51.182Z,101281.97
2023-04-27T18:10:38.102Z,101291.09
2023-04-27T18:13:25.182Z,101292.25
2023-04-27T18:16:12.490Z,101288.94
2023-04-27T18:18:59.384Z,101280.44
2023-04-27T18:21:46.422Z,101299.13
2023-04-27T18:24:33.339Z,101300.19
2023-04-27T18:27:20.436Z,101282.28
2023-04-27T18:30:07.342Z,101307.75
2023-04-27T18:32:54.819Z,101312.41
2023-04-27T18:35:42.195Z,101317.06
2023-04-27T18:38:29.450Z,101322.50
2023-04-27T18:41:16.453Z,101325.22
2023-04-27T18:44:03.390Z,101324.50
2023-04-27T18:46:50.410Z,101333.34
2023-04-27T18:49:37.521Z,101337.81
2023-04-27T18:52:24.854Z,101340.59
2023-04-27T18:55:11.776Z,101332.03
2023-04-27T18:57:58.777Z,101340.84
2023-04-27T19:00:45.931Z,101354.19
2023-04-27T19:03:33.265Z,101353.34
2023-04-27T19:06:21.319Z,101356.09
2023-04-27T19:09:08.573Z,101356.16
2023-04-27T19:12:02.858Z,101353.72
2023-04-27T19:14:51.503Z,101337.19
2023-04-27T19:17:38.643Z,101359.78
2023-04-27T19:20:26.382Z,101356.41
2023-04-27T19:23:13.445Z,101351.38
2023-04-27T19:26:11.948Z,101357.50
2023-04-27T19:29:00.637Z,101355.91
2023-04-27T19:31:48.028Z,101362.19
2023-04-27T19:34:35.052Z,101353.50
2023-04-27T19:37:22.138Z,101363.31
2023-04-27T19:40:09.192Z,101367.84
2023-04-27T19:42:56.182Z,101373.19
2023-04-27T19:45:43.167Z,101370.66
2023-04-27T19:48:30.303Z,101376.84
2023-04-27T19:51:17.235Z,101360.44
2023-04-27T19:54:04.308Z,101371.75
2023-04-27T19:56:51.483Z,101362.25
2023-04-27T19:59:39.343Z,101371.00
2023-04-27T20:02:27.130Z,101365.00
2023-04-27T20:05:14.620Z,101365.88
2023-04-27T20:08:01.994Z,101365.06
2023-04-27T20:10:49.194Z,101362.47
2023-04-27T20:13:36.178Z,101360.75
2023-04-27T20:16:23.510Z,101369.66
2023-04-27T20:19:10.476Z,101368.91
2023-04-27T20:21:57.446Z,101362.84
2023-04-27T20:24:44.432Z,101371.53
2023-04-27T20:27:31.342Z,101368.94
2023-04-27T20:30:18.341Z,101365.56
2023-04-27T20:33:05.432Z,101370.81
2023-04-27T20:35:52.445Z,101369.13
2023-04-27T20:38:40.249Z,101368.28
2023-04-27T20:41:27.294Z,101369.16
2023-04-27T20:44:14.933Z,101361.34
2023-04-27T20:47:02.206Z,101375.38
2023-04-27T20:49:49.328Z,101373.69
2023-04-27T20:52:36.432Z,101384.25
2023-04-27T20:55:24.597Z,101383.47
2023-04-27T20:58:11.576Z,101389.66
2023-04-27T21:00:58.580Z,101389.75
2023-04-27T21:03:45.847Z,101396.03
2023-04-27T21:06:32.914Z,101397.03
2023-04-27T21:09:19.891Z,101399.72
2023-04-27T21:12:07.012Z,101405.97
2023-04-27T21:14:54.321Z,101401.66
2023-04-27T21:17:41.780Z,101394.72
2023-04-27T21:20:29.376Z,101347.97
2023-04-27T21:23:16.345Z,101401.06
2023-04-27T21:26:04.801Z,101393.28
2023-04-27T21:28:51.882Z,101389.84
2023-04-27T21:31:39.035Z,101402.25
2023-04-27T21:34:26.125Z,101398.88
2023-04-27T21:37:13.069Z,101404.25
2023-04-27T21:40:00.224Z,101342.56
2023-04-27T21:42:47.197Z,101398.28
2023-04-27T21:45:34.217Z,101390.50
2023-04-27T21:48:21.785Z,101395.00
2023-04-27T21:51:08.894Z,101398.56
2023-04-27T21:53:55.982Z,101409.19
2023-04-27T21:56:43.131Z,101407.47
2023-04-27T21:59:30.300Z,101414.63
2023-04-27T22:02:17.476Z,101420.78
2023-04-27T22:05:04.548Z,101404.31
2023-04-27T22:07:51.694Z,101420.97
2023-04-27T22:10:38.700Z,101426.25
2023-04-27T22:13:25.702Z,101332.47
2023-04-27T22:16:13.759Z,101423.78
2023-04-27T22:19:01.099Z,101426.50
2023-04-27T22:21:48.203Z,101432.72
2023-04-27T22:24:35.281Z,101424.88
2023-04-27T22:27:22.746Z,101424.03
2023-04-27T22:30:10.668Z,101427.59
2023-04-27T22:32:57.874Z,101421.53
2023-04-27T22:35:45.023Z,101418.06
2023-04-27T22:38:32.015Z,101433.84
2023-04-27T22:41:19.029Z,101421.66
2023-04-27T22:44:06.032Z,101424.34
2023-04-27T22:46:53.211Z,101416.56
2023-04-27T22:49:40.377Z,101425.28
2023-04-27T22:52:27.508Z,101423.59
2023-04-27T22:55:14.480Z,101417.47
2023-04-27T22:58:01.587Z,101420.16
2023-04-27T23:00:48.577Z,101411.44
2023-04-27T23:03:35.745Z,101394.94
2023-04-27T23:06:22.832Z,101418.50
2023-04-27T23:09:09.989Z,101408.03
2023-04-27T23:11:57.094Z,101413.34
2023-04-27T23:14:44.346Z,101409.84
2023-04-27T23:17:31.436Z,101417.78
2023-04-27T23:20:28.195Z,101328.19
2023-04-27T23:23:15.815Z,101406.44
2023-04-27T23:26:03.039Z,101417.00
2023-04-27T23:28:50.206Z,101413.53
2023-04-27T23:31:37.556Z,101419.66
2023-04-27T23:34:24.487Z,101412.72
2023-04-27T23:37:11.762Z,101420.63
2023-04-27T23:39:58.935Z,101419.75
2023-04-27T23:42:46.143Z,101417.16
2023-04-27T23:45:33.244Z,101415.41
2023-04-27T23:48:20.311Z,101405.81
2023-04-27T23:51:07.239Z,101416.34
2023-04-27T23:53:54.377Z,101419.81
2023-04-27T23:56:41.222Z,101425.09
2023-04-27T23:59:28.286Z,101424.31
